createdAt,value
2022-08-11T00:02:38.892Z,99.90
2022-08-11T00:05:07.375Z,99.90
2022-08-11T00:07:41.057Z,99.90
2022-08-11T00:10:11.834Z,99.90
2022-08-11T00:12:39.083Z,99.90
2022-08-11T00:15:06.910Z,99.90
2022-08-11T00:17:34.700Z,99.90
2022-08-11T00:20:11.836Z,99.90
2022-08-11T00:22:45.500Z,99.90
2022-08-11T00:25:19.112Z,99.90
2022-08-11T00:27:47.343Z,99.90
2022-08-11T00:30:16.058Z,99.90
2022-08-11T00:32:54.683Z,99.90
2022-08-11T00:35:51.480Z,99.90
2022-08-11T00:38:14.141Z,99.90
2022-08-11T00:40:53.590Z,99.90
2022-08-11T00:43:52.190Z,99.90
2022-08-11T00:46:42.307Z,99.90
2022-08-11T00:49:21.806Z,99.90
2022-08-11T00:52:14.928Z,99.90
2022-08-11T00:55:00.262Z,99.90
2022-08-11T00:57:56.930Z,99.90
2022-08-11T01:00:27.039Z,99.90
2022-08-11T01:03:18.888Z,99.90
2022-08-11T01:06:17.341Z,99.90
2022-08-11T01:09:06.676Z,99.90
2022-08-11T01:11:38.983Z,99.90
2022-08-11T01:15:10.582Z,99.90
2022-08-11T01:18:10.975Z,99.90
2022-08-11T01:21:02.065Z,99.90
2022-08-11T01:23:47.305Z,99.90
2022-08-11T01:26:54.773Z,99.90
2022-08-11T01:29:58.580Z,99.90
2022-08-11T01:32:50.016Z,99.90
2022-08-11T01:36:13.771Z,99.90
2022-08-11T01:38:45.863Z,99.90
2022-08-11T01:41:21.310Z,99.90
2022-08-11T01:44:12.862Z,99.90
2022-08-11T01:46:48.167Z,99.90
2022-08-11T01:50:08.402Z,99.90
2022-08-11T01:52:30.989Z,99.90
2022-08-11T01:55:25.033Z,99.90
2022-08-11T01:58:05.276Z,99.90
2022-08-11T02:00:46.356Z,99.90
2022-08-11T02:03:24.158Z,99.90
2022-08-11T02:06:30.032Z,99.90
2022-08-11T02:09:05.970Z,99.90
2022-08-11T02:11:37.565Z,99.90
2022-08-11T02:14:22.961Z,99.90
2022-08-11T02:17:08.189Z,99.90
2022-08-11T02:20:25.765Z,99.90
2022-08-11T02:24:03.742Z,99.90
2022-08-11T02:26:16.696Z,99.90
2022-08-11T02:28:58.284Z,99.90
2022-08-11T02:32:23.797Z,99.90
2022-08-11T02:34:59.973Z,99.90
2022-08-11T02:37:33.357Z,99.90
2022-08-11T02:40:06.165Z,99.90
2022-08-11T02:42:46.848Z,99.90
2022-08-11T02:45:48.108Z,99.90
2022-08-11T02:48:57.209Z,99.90
2022-08-11T02:51:37.316Z,99.90
2022-08-11T02:54:27.135Z,99.90
2022-08-11T02:57:15.446Z,99.90
2022-08-11T03:00:11.951Z,99.90
2022-08-11T03:02:54.794Z,99.90
2022-08-11T03:05:56.551Z,99.90
2022-08-11T03:08:40.959Z,99.90
2022-08-11T03:11:30.733Z,99.90
2022-08-11T03:14:35.448Z,99.90
2022-08-11T03:17:23.612Z,99.90
2022-08-11T03:20:05.765Z,99.90
2022-08-11T03:22:57.629Z,99.90
2022-08-11T03:25:58.721Z,99.90
2022-08-11T03:28:50.415Z,99.90
2022-08-11T03:31:35.946Z,99.90
2022-08-11T03:34:22.962Z,99.90
2022-08-11T03:37:40.489Z,99.90
2022-08-11T03:40:07.370Z,99.90
2022-08-11T03:42:47.344Z,99.90
2022-08-11T03:45:40.754Z,99.90
2022-08-11T03:48:54.504Z,99.90
2022-08-11T03:51:51.899Z,99.90
2022-08-11T03:54:53.028Z,99.90
2022-08-11T03:57:47.817Z,99.90
2022-08-11T04:00:29.787Z,99.90
2022-08-11T04:03:14.647Z,99.90
2022-08-11T04:06:08.478Z,99.90
2022-08-11T04:08:50.296Z,99.90
2022-08-11T04:11:32.044Z,99.90
2022-08-11T04:15:00.602Z,99.90
2022-08-11T04:17:57.750Z,99.90
2022-08-11T04:20:44.218Z,99.90
2022-08-11T04:24:36.333Z,99.90
2022-08-11T04:27:04.904Z,99.90
2022-08-11T04:30:12.132Z,99.90
2022-08-11T04:33:16.444Z,99.90
2022-08-11T04:35:55.501Z,99.90
2022-08-11T04:38:58.627Z,99.90
2022-08-11T04:42:12.331Z,99.90
2022-08-11T04:44:45.061Z,99.90
2022-08-11T04:48:04.905Z,99.90
2022-08-11T04:51:16.917Z,99.90
2022-08-11T04:54:36.964Z,99.90
2022-08-11T04:57:53.136Z,99.90
2022-08-11T05:00:38.598Z,99.90
2022-08-11T05:03:23.726Z,99.90
2022-08-11T05:06:32.821Z,99.90
2022-08-11T05:09:21.145Z,99.90
2022-08-11T05:12:01.603Z,99.90
2022-08-11T05:14:54.310Z,99.90
2022-08-11T05:18:00.435Z,99.90
2022-08-11T05:20:47.962Z,99.90
2022-08-11T05:23:35.430Z,99.90
2022-08-11T05:26:47.077Z,99.90
2022-08-11T05:29:47.205Z,99.90
2022-08-11T05:32:35.505Z,99.90
2022-08-11T05:35:05.036Z,99.90
2022-08-11T05:37:34.697Z,99.90
2022-08-11T05:40:29.992Z,99.90
2022-08-11T05:43:20.602Z,99.90
2022-08-11T05:46:17.600Z,99.90
2022-08-11T05:49:03.499Z,99.90
2022-08-11T05:52:16.636Z,99.90
2022-08-11T05:55:06.247Z,99.90
2022-08-11T05:57:49.501Z,99.90
2022-08-11T06:00:20.178Z,99.90
2022-08-11T06:02:59.137Z,99.90
2022-08-11T06:05:43.343Z,99.90
2022-08-11T06:08:13.317Z,99.90
2022-08-11T06:10:43.736Z,99.90
2022-08-11T06:13:15.932Z,99.90
2022-08-11T06:15:50.722Z,99.90
2022-08-11T06:18:18.234Z,99.90
2022-08-11T06:20:50.892Z,99.90
2022-08-11T06:23:19.449Z,99.90
2022-08-11T06:25:47.102Z,99.90
2022-08-11T06:28:20.596Z,99.90
2022-08-11T06:30:48.879Z,99.90
2022-08-11T06:33:43.769Z,99.90
2022-08-11T06:36:13.271Z,99.90
2022-08-11T06:38:51.844Z,99.90
2022-08-11T06:41:30.415Z,99.90
2022-08-11T06:44:12.980Z,99.90
2022-08-11T06:46:42.149Z,99.90
2022-08-11T06:49:30.992Z,99.90
2022-08-11T06:52:34.536Z,99.90
2022-08-11T06:55:07.096Z,99.90
2022-08-11T06:57:55.363Z,99.90
2022-08-11T07:00:28.805Z,99.90
2022-08-11T07:03:09.095Z,99.90
2022-08-11T07:05:43.766Z,99.90
2022-08-11T07:09:03.353Z,99.90
2022-08-11T07:12:07.889Z,99.90
2022-08-11T07:14:54.153Z,99.90
2022-08-11T07:17:28.606Z,99.90
2022-08-11T07:20:20.122Z,99.90
2022-08-11T07:23:13.589Z,99.90
2022-08-11T07:26:02.098Z,99.90
2022-08-11T07:28:49.064Z,99.90
2022-08-11T07:31:31.434Z,99.90
2022-08-11T07:34:22.463Z,99.90
2022-08-11T12:54:40.686Z,99.90
2022-08-11T12:57:36.442Z,63.70
2022-08-11T13:00:24.707Z,64.30
2022-08-11T13:03:10.680Z,65.10
2022-08-11T13:13:55.837Z,64.00
2022-08-11T13:16:15.024Z,62.40
2022-08-11T13:18:42.885Z,60.70
2022-08-11T13:21:20.725Z,60.00
2022-08-11T13:24:01.507Z,61.20
2022-08-11T13:26:47.467Z,61.60
2022-08-11T13:29:25.234Z,58.30
2022-08-11T13:31:54.534Z,57.70
2022-08-11T13:34:24.004Z,59.70
2022-08-11T13:36:53.160Z,58.00
2022-08-11T13:39:26.793Z,56.30
2022-08-11T13:41:55.130Z,56.90
2022-08-11T13:44:25.886Z,57.20
2022-08-11T13:46:59.257Z,56.60
2022-08-11T13:49:26.688Z,55.30
2022-08-11T13:51:55.173Z,56.20
2022-08-11T13:54:25.322Z,54.90
2022-08-11T13:56:57.242Z,55.10
2022-08-11T13:59:30.022Z,56.30
2022-08-11T14:02:21.631Z,54.30
2022-08-11T14:04:56.099Z,53.80
2022-08-11T14:07:27.531Z,53.20
2022-08-11T14:09:59.168Z,51.20
2022-08-11T14:12:50.768Z,52.80
2022-08-11T14:15:25.137Z,53.40
2022-08-11T14:18:01.666Z,51.60
2022-08-11T14:20:50.794Z,51.20
2022-08-11T14:23:20.452Z,52.20
2022-08-11T14:26:06.626Z,48.60
2022-08-11T14:28:41.562Z,47.80
2022-08-11T14:31:14.409Z,47.40
2022-08-11T14:34:00.722Z,47.20
2022-08-11T14:36:39.105Z,44.90
2022-08-11T14:39:12.525Z,46.70
2022-08-11T14:42:24.467Z,43.60
2022-08-11T14:45:17.947Z,43.90
2022-08-11T14:47:49.924Z,41.60
2022-08-11T14:50:23.862Z,38.70
2022-08-11T14:52:56.852Z,38.00
2022-08-11T14:55:45.278Z,38.30
2022-08-11T14:58:16.004Z,38.10
2022-08-11T15:00:43.642Z,38.20
2022-08-11T15:03:13.923Z,41.10
2022-08-11T15:06:02.062Z,40.00
2022-08-11T15:08:57.128Z,40.90
2022-08-11T15:11:47.318Z,41.30
2022-08-11T15:14:14.702Z,41.10
2022-08-11T15:17:02.257Z,41.30
2022-08-11T15:19:40.313Z,41.80
2022-08-11T15:22:28.458Z,41.60
2022-08-11T15:24:57.021Z,41.30
2022-08-11T15:27:43.178Z,42.00
2022-08-11T15:30:33.716Z,41.30
2022-08-11T15:33:30.657Z,40.40
2022-08-11T15:36:16.552Z,39.90
2022-08-11T15:38:54.880Z,39.50
2022-08-11T15:41:56.417Z,38.20
2022-08-11T15:45:02.844Z,38.50
2022-08-11T15:47:41.808Z,36.20
2022-08-11T15:50:14.098Z,35.70
2022-08-11T15:52:53.503Z,35.40
2022-08-11T15:55:23.753Z,34.50
2022-08-11T15:58:12.285Z,35.40
2022-08-11T16:01:04.266Z,35.70
2022-08-11T16:04:08.910Z,36.60
2022-08-11T16:06:58.134Z,36.40
2022-08-11T16:09:41.333Z,35.30
2022-08-11T16:12:18.874Z,35.40
2022-08-11T16:15:11.269Z,35.70
2022-08-11T16:17:44.270Z,35.00
2022-08-11T16:20:14.193Z,35.20
2022-08-11T16:23:00.267Z,34.50
2022-08-11T16:27:02.420Z,35.40
2022-08-11T16:28:21.979Z,35.70
2022-08-11T16:30:49.794Z,36.10
2022-08-11T16:33:48.772Z,35.80
2022-08-11T16:36:24.607Z,35.40
2022-08-11T16:38:52.916Z,36.40
2022-08-11T16:41:41.442Z,36.90
2022-08-11T16:44:37.229Z,36.90
2022-08-11T16:47:07.068Z,39.00
2022-08-11T16:49:36.656Z,38.10
2022-08-11T16:52:07.938Z,37.90
2022-08-11T16:54:35.859Z,38.00
2022-08-11T16:57:47.639Z,38.50
2022-08-11T17:00:17.128Z,38.90
2022-08-11T17:03:11.646Z,37.00
2022-08-11T17:06:11.904Z,36.90
2022-08-11T17:09:07.011Z,37.80
2022-08-11T17:12:01.171Z,38.30
2022-08-11T17:14:50.925Z,37.60
2022-08-11T17:17:26.051Z,38.20
2022-08-11T17:20:41.171Z,37.70
2022-08-11T17:23:02.624Z,38.20
2022-08-11T17:25:32.263Z,38.30
2022-08-11T17:28:20.373Z,38.20
2022-08-11T17:31:22.343Z,38.80
2022-08-11T17:34:10.021Z,37.80
2022-08-11T17:36:41.604Z,37.50
2022-08-11T17:39:15.242Z,37.90
2022-08-11T17:42:02.036Z,37.70
2022-08-11T17:44:49.015Z,37.70
2022-08-11T17:47:36.564Z,38.00
2022-08-11T17:50:17.188Z,38.40
2022-08-11T17:53:05.437Z,37.90
2022-08-11T17:55:53.708Z,38.70
2022-08-11T17:58:39.913Z,39.20
2022-08-11T18:01:10.804Z,39.70
2022-08-11T18:03:40.534Z,40.20
2022-08-11T18:06:12.574Z,40.80
2022-08-11T18:09:02.209Z,41.20
2022-08-11T18:12:09.840Z,42.00
2022-08-11T18:14:57.961Z,43.30
2022-08-11T18:17:43.459Z,43.90
2022-08-11T18:20:28.968Z,44.30
2022-08-11T18:23:14.893Z,45.00
2022-08-11T18:26:06.376Z,45.80
2022-08-11T18:29:01.573Z,46.20
2022-08-11T18:31:51.722Z,46.80
2022-08-11T18:34:43.240Z,47.20
2022-08-11T18:37:49.477Z,48.00
2022-08-11T18:40:47.247Z,48.50
2022-08-11T18:43:34.716Z,49.40
2022-08-11T18:46:25.320Z,50.40
2022-08-11T18:50:01.490Z,50.40
2022-08-11T18:52:36.064Z,51.10
2022-08-11T18:55:24.281Z,52.00
2022-08-11T18:58:12.222Z,53.00
2022-08-11T19:00:59.340Z,53.40
2022-08-11T19:03:49.348Z,53.40
2022-08-11T19:06:41.017Z,54.30
2022-08-11T19:09:32.485Z,54.80
2022-08-11T19:12:18.907Z,55.50
2022-08-11T19:15:06.840Z,56.10
2022-08-11T19:17:54.821Z,56.60
2022-08-11T19:20:43.996Z,57.30
2022-08-11T19:23:31.406Z,57.00
2022-08-11T19:26:18.378Z,57.30
2022-08-11T19:29:07.425Z,57.40
2022-08-11T19:31:54.520Z,58.10
2022-08-11T19:34:42.846Z,58.40
2022-08-11T19:37:30.185Z,59.20
2022-08-11T19:40:24.710Z,59.50
2022-08-11T19:43:18.792Z,60.10
2022-08-11T19:46:17.413Z,60.00
2022-08-11T19:49:04.832Z,61.00
2022-08-11T19:51:54.092Z,62.30
2022-08-11T19:54:43.155Z,63.30
2022-08-11T19:57:29.332Z,65.50
2022-08-11T20:00:15.273Z,67.20
2022-08-11T20:03:00.869Z,67.00
2022-08-11T20:05:55.545Z,68.10
2022-08-11T20:08:47.827Z,68.80
2022-08-11T20:11:33.882Z,68.80
2022-08-11T20:14:20.917Z,69.40
2022-08-11T20:17:06.418Z,70.20
2022-08-11T20:19:57.547Z,70.80
2022-08-11T20:22:46.758Z,70.60
2022-08-11T20:25:40.259Z,72.20
2022-08-11T20:28:26.657Z,73.90
2022-08-11T20:31:12.804Z,75.50
2022-08-11T20:33:59.814Z,76.00
2022-08-11T20:36:49.929Z,77.90
2022-08-11T20:39:41.879Z,78.80
2022-08-11T20:42:30.685Z,81.60
2022-08-11T20:45:17.856Z,83.50
2022-08-11T20:48:14.694Z,84.50
2022-08-11T20:51:06.291Z,83.80
2022-08-11T20:54:00.029Z,83.30
2022-08-11T20:56:53.788Z,83.60
2022-08-11T20:59:56.921Z,84.00
2022-08-11T21:02:44.762Z,83.90
2022-08-11T21:06:10.031Z,84.70
2022-08-11T21:08:39.039Z,85.90
2022-08-11T21:11:28.535Z,87.40
2022-08-11T21:14:14.425Z,88.60
2022-08-11T21:17:00.464Z,90.00
2022-08-11T21:20:06.576Z,90.30
2022-08-11T21:23:05.479Z,91.10
2022-08-11T21:26:01.222Z,91.80
2022-08-11T21:28:49.536Z,92.40
2022-08-11T21:31:36.459Z,93.00
2022-08-11T21:34:23.453Z,93.60
2022-08-11T21:37:10.641Z,94.00
2022-08-11T21:39:56.749Z,94.80
2022-08-11T21:42:43.831Z,95.50
2022-08-11T21:45:29.899Z,96.20
2022-08-11T21:48:15.690Z,96.70
2022-08-11T21:51:01.250Z,97.20
2022-08-11T21:53:47.089Z,98.00
2022-08-11T21:56:33.476Z,98.70
2022-08-11T21:59:20.365Z,99.90
2022-08-11T22:02:12.409Z,99.90
2022-08-11T22:04:58.793Z,99.90
2022-08-11T22:07:44.337Z,99.90
2022-08-11T22:10:41.959Z,99.90
2022-08-11T22:13:32.420Z,99.90
2022-08-11T22:16:18.300Z,99.90
2022-08-11T22:19:05.708Z,99.90
2022-08-11T22:21:56.976Z,99.90
2022-08-11T22:24:51.354Z,99.90
2022-08-11T22:27:37.281Z,99.90
2022-08-11T22:30:25.181Z,99.90
2022-08-11T22:33:11.767Z,99.90
2022-08-11T22:36:01.699Z,99.90
2022-08-11T22:38:47.650Z,99.90
2022-08-11T22:41:33.197Z,99.90
2022-08-11T22:44:18.555Z,99.90
2022-08-11T22:47:05.226Z,99.90
2022-08-11T22:49:57.462Z,99.90
2022-08-11T22:52:45.353Z,99.90
2022-08-11T22:55:31.774Z,99.90
2022-08-11T22:58:17.545Z,99.90
2022-08-11T23:01:03.281Z,99.90
2022-08-11T23:25:50.919Z,99.90
2022-08-11T23:28:37.156Z,99.90
2022-08-11T23:31:22.492Z,99.90
2022-08-11T23:34:43.483Z,99.90
2022-08-11T23:37:17.030Z,99.90
2022-08-11T23:40:02.361Z,99.90
2022-08-11T23:42:47.749Z,99.90
2022-08-11T23:45:33.748Z,99.90
2022-08-11T23:48:20.636Z,99.90
2022-08-11T23:51:06.623Z,99.90
2022-08-11T23:53:52.389Z,99.90
2022-08-11T23:56:37.984Z,99.90
2022-08-11T23:59:23.344Z,99.90
